createdAt,value
2022-10-12T00:01:21.228Z,95956.95
2022-10-12T00:03:51.727Z,95951.73
2022-10-12T00:06:28.873Z,95955.44
2022-10-12T00:08:59.179Z,95954.09
2022-10-12T00:11:30.344Z,95951.11
2022-10-12T00:14:00.228Z,95949.33
2022-10-12T00:16:31.319Z,95949.40
2022-10-12T00:19:00.732Z,95951.23
2022-10-12T00:21:31.923Z,95943.33
2022-10-12T00:24:01.905Z,95941.16
2022-10-12T00:26:31.205Z,95937.89
2022-10-12T00:29:02.766Z,95945.23
2022-10-12T00:31:32.604Z,95937.20
2022-10-12T00:34:06.877Z,95936.55
2022-10-12T00:36:36.660Z,95933.11
2022-10-12T00:39:08.052Z,95938.34
2022-10-12T00:41:39.714Z,95940.80
2022-10-12T00:44:40.316Z,95938.66
2022-10-12T00:47:28.612Z,95940.96
2022-10-12T00:50:08.988Z,95940.50
2022-10-12T00:52:46.209Z,95937.07
2022-10-12T00:55:17.836Z,95935.02
2022-10-12T00:57:49.817Z,95929.71
2022-10-12T01:00:19.974Z,95931.13
2022-10-12T01:02:51.885Z,95926.91
2022-10-12T01:05:21.961Z,95926.41
2022-10-12T01:07:50.855Z,95930.43
2022-10-12T01:10:19.614Z,95931.89
2022-10-12T01:12:50.488Z,95929.39
2022-10-12T01:15:19.364Z,95929.52
2022-10-12T01:17:53.692Z,95930.11
2022-10-12T01:20:25.254Z,95941.27
2022-10-12T01:23:18.455Z,95939.41
2022-10-12T01:25:50.052Z,95939.41
2022-10-12T01:28:21.637Z,95938.89
2022-10-12T01:30:53.533Z,95935.86
2022-10-12T01:33:27.817Z,95932.52
2022-10-12T01:35:59.486Z,95932.06
2022-10-12T01:38:31.158Z,95930.03
2022-10-12T01:41:17.939Z,95932.02
2022-10-12T01:43:47.672Z,95938.97
2022-10-12T01:46:22.177Z,95931.64
2022-10-12T01:48:53.755Z,95931.77
2022-10-12T01:51:54.968Z,95933.13
2022-10-12T01:54:41.516Z,95938.34
2022-10-12T01:57:37.713Z,95933.23
2022-10-12T02:00:23.002Z,95939.16
2022-10-12T02:03:25.956Z,95936.40
2022-10-12T02:06:12.691Z,95936.50
2022-10-12T02:09:03.851Z,95931.80
2022-10-12T02:11:34.360Z,95940.11
2022-10-12T02:14:08.817Z,95940.58
2022-10-12T02:16:40.485Z,95942.86
2022-10-12T02:19:12.529Z,95942.48
2022-10-12T02:21:41.904Z,95948.42
2022-10-12T02:24:13.514Z,95954.34
2022-10-12T02:26:45.566Z,95953.01
2022-10-12T02:29:17.327Z,95953.01
2022-10-12T02:32:07.058Z,95956.50
2022-10-12T02:34:44.068Z,95960.13
2022-10-12T02:37:32.206Z,95960.25
2022-10-12T02:40:06.358Z,95963.80
2022-10-12T02:43:05.339Z,95961.69
2022-10-12T02:45:10.884Z,95956.45
2022-10-12T02:47:40.651Z,95952.31
2022-10-12T02:50:11.254Z,95952.18
2022-10-12T02:52:40.459Z,95952.43
2022-10-12T02:55:11.656Z,95950.55
2022-10-12T02:57:40.901Z,95954.27
2022-10-12T03:00:13.551Z,95954.22
2022-10-12T03:02:42.149Z,95962.20
2022-10-12T03:05:12.102Z,95956.31
2022-10-12T03:07:41.111Z,95954.09
2022-10-12T03:10:13.476Z,95959.84
2022-10-12T03:12:45.372Z,95949.05
2022-10-12T03:15:12.606Z,95953.52
2022-10-12T03:17:41.325Z,95950.67
2022-10-12T03:20:10.594Z,95949.08
2022-10-12T03:22:40.939Z,95945.44
2022-10-12T03:25:13.930Z,95871.48
2022-10-12T03:27:42.563Z,95949.84
2022-10-12T03:30:13.232Z,95947.74
2022-10-12T03:32:42.014Z,95950.22
2022-10-12T03:35:14.154Z,95946.86
2022-10-12T03:37:43.364Z,95947.43
2022-10-12T03:40:18.011Z,95948.94
2022-10-12T03:42:48.498Z,95956.34
2022-10-12T03:45:18.851Z,95954.41
2022-10-12T03:47:48.442Z,95951.86
2022-10-12T03:50:20.924Z,95954.56
2022-10-12T03:52:54.875Z,95953.57
2022-10-12T03:55:25.473Z,95954.16
2022-10-12T03:57:54.366Z,95951.97
2022-10-12T04:00:30.084Z,95956.90
2022-10-12T04:02:58.980Z,95949.86
2022-10-12T04:05:28.899Z,95952.73
2022-10-12T04:08:19.810Z,95947.38
2022-10-12T04:10:50.445Z,95952.06
2022-10-12T04:13:31.207Z,95954.56
2022-10-12T04:16:09.315Z,95959.83
2022-10-12T04:18:44.406Z,95958.66
2022-10-12T04:21:34.585Z,95963.14
2022-10-12T04:24:06.430Z,95968.50
2022-10-12T04:26:37.005Z,95970.04
2022-10-12T04:29:06.565Z,95976.54
2022-10-12T04:31:45.843Z,95970.55
2022-10-12T04:34:19.812Z,95974.74
2022-10-12T04:37:04.454Z,95977.17
2022-10-12T04:39:39.708Z,95972.12
2022-10-12T04:42:11.358Z,95970.41
2022-10-12T04:44:40.041Z,95973.84
2022-10-12T04:47:08.895Z,95971.38
2022-10-12T04:49:37.482Z,95972.92
2022-10-12T04:52:06.562Z,95977.56
2022-10-12T04:54:45.735Z,95983.44
2022-10-12T04:57:17.674Z,95982.52
2022-10-12T04:59:46.410Z,95982.41
2022-10-12T05:02:19.553Z,95987.11
2022-10-12T05:04:51.009Z,95991.37
2022-10-12T05:07:19.599Z,95994.31
2022-10-12T05:09:51.025Z,95914.65
2022-10-12T05:12:21.783Z,95995.17
2022-10-12T05:14:50.440Z,95994.53
2022-10-12T05:17:19.157Z,95999.70
2022-10-12T05:19:48.983Z,96000.25
2022-10-12T05:22:17.604Z,96001.59
2022-10-12T05:24:51.395Z,96005.91
2022-10-12T05:27:18.228Z,96006.67
2022-10-12T05:29:49.905Z,96008.52
2022-10-12T05:32:21.212Z,96016.66
2022-10-12T05:34:49.786Z,96017.62
2022-10-12T05:37:23.991Z,96018.24
2022-10-12T05:39:59.056Z,96016.58
2022-10-12T05:48:44.631Z,96021.08
2022-10-12T05:51:18.202Z,96025.16
2022-10-12T05:53:47.006Z,96031.73
2022-10-12T05:56:15.926Z,96031.53
2022-10-12T05:58:44.613Z,96037.98
2022-10-12T06:01:15.027Z,96031.53
2022-10-12T06:03:44.043Z,96046.14
2022-10-12T06:06:12.817Z,96046.80
2022-10-12T06:08:41.604Z,96046.47
2022-10-12T06:11:10.411Z,96048.27
2022-10-12T06:13:41.545Z,96050.76
2022-10-12T06:16:10.570Z,96057.80
2022-10-12T06:18:39.310Z,96053.97
2022-10-12T06:21:31.989Z,96059.13
2022-10-12T06:23:38.507Z,96060.13
2022-10-12T06:26:12.548Z,96057.64
2022-10-12T06:28:43.402Z,96058.40
2022-10-12T06:31:15.209Z,96057.41
2022-10-12T06:33:44.712Z,96060.52
2022-10-12T06:36:17.309Z,96064.16
2022-10-12T06:38:49.178Z,96059.45
2022-10-12T06:41:18.300Z,96067.31
2022-10-12T06:43:49.123Z,96066.13
2022-10-12T06:46:19.631Z,96069.33
2022-10-12T06:48:51.333Z,96074.03
2022-10-12T06:51:20.210Z,96081.36
2022-10-12T06:53:50.379Z,96073.36
2022-10-12T06:56:20.753Z,96078.53
2022-10-12T06:58:52.389Z,96076.37
2022-10-12T07:01:21.124Z,96084.63
2022-10-12T07:03:51.175Z,96086.72
2022-10-12T07:06:19.895Z,96082.23
2022-10-12T07:11:49.518Z,96088.47
2022-10-12T07:14:18.207Z,96084.72
2022-10-12T07:16:55.072Z,96088.30
2022-10-12T07:19:21.128Z,96086.73
2022-10-12T07:21:49.892Z,96026.68
2022-10-12T07:24:18.575Z,96079.84
2022-10-12T07:26:50.121Z,96079.73
2022-10-12T07:29:20.355Z,96083.50
2022-10-12T07:31:51.968Z,96083.57
2022-10-12T07:34:21.082Z,96084.40
2022-10-12T07:36:59.196Z,96086.94
2022-10-12T07:39:23.439Z,96090.01
2022-10-12T07:44:59.216Z,96084.20
2022-10-12T07:47:29.534Z,96092.89
2022-10-12T07:49:59.689Z,96093.25
2022-10-12T07:52:28.574Z,96091.92
2022-10-12T07:54:57.337Z,96096.73
2022-10-12T07:57:27.761Z,96093.44
2022-10-12T07:59:56.450Z,96089.95
2022-10-12T08:02:26.667Z,96088.24
2022-10-12T08:04:59.093Z,96091.51
2022-10-12T08:07:27.467Z,96093.63
2022-10-12T08:09:56.042Z,96088.12
2022-10-12T08:12:25.145Z,96082.46
2022-10-12T08:14:53.807Z,96090.62
2022-10-12T08:17:22.417Z,96092.16
2022-10-12T08:19:51.049Z,96087.75
2022-10-12T08:22:22.766Z,96086.21
2022-10-12T08:24:51.674Z,96096.61
2022-10-12T08:27:23.629Z,96094.13
2022-10-12T08:29:52.313Z,96094.68
2022-10-12T08:32:21.073Z,96088.32
2022-10-12T08:34:56.489Z,96090.19
2022-10-12T08:37:30.085Z,96090.97
2022-10-12T08:46:07.116Z,96091.08
2022-10-12T08:51:50.105Z,96090.50
2022-10-12T08:54:24.053Z,96090.98
2022-10-12T08:56:58.580Z,96088.22
2022-10-12T08:59:29.499Z,96086.27
2022-10-12T09:02:23.785Z,96088.43
2022-10-12T09:05:05.871Z,96087.12
2022-10-12T09:07:55.250Z,96087.98
2022-10-12T09:10:54.229Z,96083.66
2022-10-12T09:13:44.048Z,96091.47
2022-10-12T09:16:27.842Z,96090.98
2022-10-12T09:19:00.051Z,96086.55
2022-10-12T09:21:31.661Z,96090.84
2022-10-12T09:24:01.978Z,96085.42
2022-10-12T09:26:40.040Z,96087.14
2022-10-12T09:29:18.813Z,96087.50
2022-10-12T09:31:59.517Z,96086.30
2022-10-12T09:34:28.317Z,96071.48
2022-10-12T09:37:05.654Z,96089.57
2022-10-12T09:39:40.073Z,96090.33
2022-10-12T09:42:10.213Z,96096.75
2022-10-12T09:44:59.743Z,96092.00
2022-10-12T09:47:35.960Z,96089.42
2022-10-12T09:50:09.661Z,96089.27
2022-10-12T09:52:46.339Z,96089.83
2022-10-12T09:55:21.178Z,96086.19
2022-10-12T09:58:06.252Z,96081.55
2022-10-12T10:00:36.174Z,96084.30
2022-10-12T10:03:05.059Z,96089.44
2022-10-12T10:05:40.920Z,96083.58
2022-10-12T10:08:25.542Z,96084.56
2022-10-12T10:10:56.562Z,96081.34
2022-10-12T10:13:31.118Z,96079.39
2022-10-12T10:16:11.434Z,96080.55
2022-10-12T10:19:01.359Z,96082.66
2022-10-12T10:21:33.046Z,96072.39
2022-10-12T10:24:07.854Z,96074.72
2022-10-12T10:27:02.589Z,96068.72
2022-10-12T10:29:40.686Z,96050.31
2022-10-12T10:32:28.626Z,96062.30
2022-10-12T10:35:10.434Z,96065.80
2022-10-12T10:37:47.496Z,96056.91
2022-10-12T10:40:31.293Z,96055.59
2022-10-12T10:43:06.006Z,96057.22
2022-10-12T10:45:43.408Z,96050.72
2022-10-12T10:48:14.459Z,96049.54
2022-10-12T10:50:46.159Z,96051.14
2022-10-12T10:53:26.640Z,96045.08
2022-10-12T10:56:16.539Z,96041.55
2022-10-12T10:58:54.154Z,96035.86
2022-10-12T11:01:43.353Z,96038.73
2022-10-12T11:04:23.334Z,96038.20
2022-10-12T11:07:20.248Z,96042.13
2022-10-12T11:09:53.506Z,96042.11
2022-10-12T11:12:31.157Z,96034.23
2022-10-12T11:15:16.135Z,96031.74
2022-10-12T11:17:47.728Z,96030.63
2022-10-12T11:20:43.164Z,96026.05
2022-10-12T11:23:23.977Z,96027.55
2022-10-12T11:26:09.867Z,96018.80
2022-10-12T11:28:40.472Z,96019.90
2022-10-12T11:31:13.839Z,96015.31
2022-10-12T11:33:44.836Z,96023.75
2022-10-12T11:36:16.476Z,96014.41
2022-10-12T11:38:48.172Z,96005.02
2022-10-12T11:41:35.842Z,96011.17
2022-10-12T11:44:09.749Z,96008.52
2022-10-12T11:46:56.061Z,96008.22
2022-10-12T11:52:39.794Z,96008.38
2022-10-12T11:55:33.055Z,96008.21
2022-10-12T11:58:07.606Z,96015.27
2022-10-12T12:01:31.474Z,96010.22
2022-10-12T12:04:43.072Z,96012.52
2022-10-12T12:07:07.109Z,96005.78
2022-10-12T12:09:43.324Z,96003.22
2022-10-12T12:12:17.882Z,96002.13
2022-10-12T12:15:05.932Z,96005.94
2022-10-12T12:17:36.158Z,96007.03
2022-10-12T12:20:24.168Z,96005.19
2022-10-12T12:22:55.671Z,96002.80
2022-10-12T12:25:30.692Z,95998.66
2022-10-12T12:28:02.875Z,95992.92
2022-10-12T12:30:39.452Z,95995.44
2022-10-12T12:33:35.993Z,95997.39
2022-10-12T12:36:11.521Z,96002.91
2022-10-12T12:38:42.713Z,96001.63
2022-10-12T12:41:17.291Z,95999.27
2022-10-12T12:43:58.830Z,96003.65
2022-10-12T12:46:49.794Z,96007.97
2022-10-12T12:49:30.489Z,96006.20
2022-10-12T12:51:59.890Z,96010.33
2022-10-12T12:54:29.371Z,96003.25
2022-10-12T12:57:20.446Z,96005.59
2022-10-12T12:59:52.024Z,96012.06
2022-10-12T13:02:48.039Z,96009.93
2022-10-12T13:05:40.968Z,96009.39
2022-10-12T13:08:27.735Z,96009.91
2022-10-12T13:11:33.481Z,96015.72
2022-10-12T13:14:47.003Z,96012.88
2022-10-12T13:17:36.801Z,96013.48
2022-10-12T13:20:18.876Z,96015.94
2022-10-12T13:22:50.525Z,96017.98
2022-10-12T13:25:40.232Z,96013.45
2022-10-12T13:28:18.506Z,96011.97
2022-10-12T13:30:56.073Z,96011.10
2022-10-12T13:33:32.477Z,96013.70
2022-10-12T13:36:10.952Z,96011.88
2022-10-12T13:38:41.136Z,95949.17
2022-10-12T13:41:23.902Z,96013.02
2022-10-12T13:44:25.703Z,96011.84
2022-10-12T13:46:55.793Z,96015.39
2022-10-12T13:49:37.312Z,96017.66
2022-10-12T13:52:18.283Z,96014.17
2022-10-12T13:54:51.155Z,96018.34
2022-10-12T13:57:32.359Z,96012.41
2022-10-12T14:00:08.411Z,96008.55
2022-10-12T14:02:38.409Z,96007.61
2022-10-12T14:05:19.503Z,96013.36
2022-10-12T14:18:44.484Z,96006.01
2022-10-12T14:21:41.652Z,96005.73
2022-10-12T14:27:50.452Z,95999.97
2022-10-12T14:30:31.435Z,96001.22
2022-10-12T14:36:43.577Z,96005.35
2022-10-12T14:39:21.453Z,96015.16
2022-10-12T14:42:03.887Z,96004.84
2022-10-12T14:44:35.796Z,96011.27
2022-10-12T14:47:07.673Z,96005.11
2022-10-12T14:49:45.338Z,96005.51
2022-10-12T14:52:36.967Z,96006.09
2022-10-12T14:55:09.238Z,95996.75
2022-10-12T14:57:41.049Z,95999.65
2022-10-12T15:00:45.923Z,95998.47
2022-10-12T15:03:28.510Z,95993.88
2022-10-12T15:12:57.678Z,95993.51
2022-10-12T15:15:47.033Z,95998.12
2022-10-12T15:18:21.692Z,96001.78
2022-10-12T15:21:38.036Z,96001.59
2022-10-12T15:24:18.628Z,96005.05
2022-10-12T15:30:06.796Z,96001.20
2022-10-12T15:32:40.462Z,96001.96
2022-10-12T15:38:33.933Z,96005.41
2022-10-12T15:41:17.168Z,96011.73
2022-10-12T15:44:02.764Z,96013.82
2022-10-12T15:46:34.825Z,96014.73
2022-10-12T15:52:13.956Z,96019.16
2022-10-12T15:54:52.260Z,96019.90
2022-10-12T15:57:24.835Z,96022.37
2022-10-12T15:59:58.989Z,96025.25
2022-10-12T16:02:34.971Z,96023.50
2022-10-12T16:05:05.396Z,96026.77
2022-10-12T16:07:38.462Z,96027.12
2022-10-12T16:10:10.877Z,96024.98
2022-10-12T16:12:48.411Z,96027.83
2022-10-12T16:15:22.977Z,96026.88
2022-10-12T16:17:51.663Z,96029.72
2022-10-12T16:20:20.633Z,96031.64
2022-10-12T16:22:50.364Z,96031.41
2022-10-12T16:25:22.912Z,96032.53
2022-10-12T16:27:53.593Z,96038.44
2022-10-12T16:30:24.702Z,96037.05
2022-10-12T16:32:54.820Z,96039.13
2022-10-12T16:35:35.541Z,96043.11
2022-10-12T16:38:18.522Z,96048.67
2022-10-12T16:40:54.000Z,96050.19
2022-10-12T16:46:41.060Z,96054.14
2022-10-12T16:49:15.416Z,96051.17
2022-10-12T16:51:51.309Z,96049.64
2022-10-12T16:57:30.621Z,96050.69
2022-10-12T17:00:03.533Z,96051.63
2022-10-12T17:02:32.752Z,96047.76
2022-10-12T17:05:03.125Z,96047.19
2022-10-12T17:07:33.193Z,96045.25
2022-10-12T17:10:03.376Z,96043.47
2022-10-12T17:12:34.290Z,96043.09
2022-10-12T17:17:58.610Z,96046.69
2022-10-12T17:21:09.070Z,96045.39
2022-10-12T17:23:44.553Z,96039.21
2022-10-12T17:26:13.405Z,96038.32
2022-10-12T17:28:54.268Z,96034.85
2022-10-12T17:31:29.183Z,96032.83
2022-10-12T17:33:59.820Z,96028.02
2022-10-12T17:39:21.203Z,96033.75
2022-10-12T17:42:05.804Z,96031.97
2022-10-12T17:45:05.847Z,96036.85
2022-10-12T17:54:32.351Z,96040.38
2022-10-12T17:57:01.163Z,96045.78
2022-10-12T17:59:29.867Z,96048.03
2022-10-12T18:02:00.161Z,96043.92
2022-10-12T18:04:28.745Z,96050.16
2022-10-12T18:06:57.411Z,96049.72
2022-10-12T18:09:26.104Z,96056.52
2022-10-12T18:11:56.309Z,96062.48
2022-10-12T18:14:25.039Z,96054.98
2022-10-12T18:16:58.008Z,96057.19
2022-10-12T18:19:36.013Z,96059.91
2022-10-12T18:25:22.536Z,96036.23
2022-10-12T18:27:55.913Z,96045.16
2022-10-12T18:31:07.600Z,96050.64
2022-10-12T18:33:27.653Z,96050.41
2022-10-12T18:35:58.106Z,96026.67
2022-10-12T18:38:26.720Z,96048.35
2022-10-12T18:40:55.399Z,96039.08
2022-10-12T18:43:28.245Z,95969.20
2022-10-12T18:45:58.365Z,96046.66
2022-10-12T18:48:59.288Z,96046.02
2022-10-12T18:51:33.601Z,96052.30
2022-10-12T18:54:03.666Z,96049.02
2022-10-12T18:56:35.298Z,96045.29
2022-10-12T18:59:04.818Z,96047.89
2022-10-12T19:01:34.854Z,96047.89
2022-10-12T19:04:08.515Z,96045.53
2022-10-12T19:06:39.262Z,96046.96
2022-10-12T19:09:07.903Z,96050.07
2022-10-12T19:11:37.458Z,96044.37
2022-10-12T19:14:13.245Z,96053.80
2022-10-12T19:16:43.390Z,96052.77
2022-10-12T19:19:21.563Z,96054.39
2022-10-12T19:21:52.198Z,96062.11
2022-10-12T19:24:22.500Z,96059.94
2022-10-12T19:26:54.136Z,96062.42
2022-10-12T19:29:22.822Z,96066.91
2022-10-12T19:31:52.340Z,96066.96
2022-10-12T19:34:23.783Z,96068.02
2022-10-12T19:36:54.436Z,96063.31
2022-10-12T19:39:25.941Z,96068.86
2022-10-12T19:41:54.607Z,96069.94
2022-10-12T19:44:23.437Z,96069.08
2022-10-12T19:46:53.726Z,96072.27
2022-10-12T19:49:22.450Z,96069.73
2022-10-12T19:51:51.012Z,96075.48
2022-10-12T19:54:19.806Z,96080.69
2022-10-12T19:56:48.506Z,96079.06
2022-10-12T19:59:24.413Z,96080.46
2022-10-12T20:01:55.359Z,96071.12
2022-10-12T20:04:24.274Z,96076.52
2022-10-12T20:06:55.418Z,96077.70
2022-10-12T20:09:27.466Z,96078.27
2022-10-12T20:11:57.732Z,96075.75
2022-10-12T20:14:26.749Z,96078.33
2022-10-12T20:16:57.322Z,96076.31
2022-10-12T20:19:26.338Z,96080.48
2022-10-12T20:21:55.369Z,96079.66
2022-10-12T20:24:25.860Z,96087.05
2022-10-12T20:26:54.605Z,96082.00
2022-10-12T20:29:23.360Z,96078.63
2022-10-12T20:31:52.294Z,96074.11
2022-10-12T20:34:22.481Z,96080.93
2022-10-12T20:36:53.029Z,96091.65
2022-10-12T20:39:22.823Z,96090.73
2022-10-12T20:42:07.511Z,96092.84
2022-10-12T20:44:36.901Z,96093.40
2022-10-12T20:47:05.709Z,96092.73
2022-10-12T20:49:43.194Z,96089.61
2022-10-12T20:52:23.325Z,96094.34
2022-10-12T20:54:55.536Z,96101.16
2022-10-12T20:57:27.129Z,96103.41
2022-10-12T20:59:57.350Z,96099.43
2022-10-12T21:02:28.664Z,96101.92
2022-10-12T21:04:57.383Z,96108.23
2022-10-12T21:07:27.654Z,96100.34
2022-10-12T21:09:56.412Z,96102.84
2022-10-12T21:12:25.192Z,96102.11
2022-10-12T21:15:06.914Z,96096.56
2022-10-12T21:17:36.306Z,96092.42
2022-10-12T21:26:14.332Z,96090.50
2022-10-12T21:28:46.508Z,96086.57
2022-10-12T21:31:19.236Z,96087.86
2022-10-12T21:33:55.031Z,96087.52
2022-10-12T21:36:27.884Z,96089.86
2022-10-12T21:47:53.231Z,96089.67
2022-10-12T21:50:25.823Z,96090.72
2022-10-12T21:53:00.722Z,96089.48
2022-10-12T21:58:50.227Z,96095.66
2022-10-12T22:07:55.926Z,96090.55
2022-10-12T22:10:36.948Z,96081.46
2022-10-12T22:13:18.073Z,96083.56
2022-10-12T23:27:21.023Z,96115.72
2022-10-12T23:30:01.875Z,96114.28
2022-10-12T23:32:43.872Z,96121.67
2022-10-12T23:35:26.544Z,96122.77
2022-10-12T23:37:49.220Z,96045.28
2022-10-12T23:40:28.281Z,96125.64
2022-10-12T23:42:57.052Z,96125.22
2022-10-12T23:45:45.560Z,96122.44
2022-10-12T23:48:15.041Z,96123.03
2022-10-12T23:50:43.703Z,96120.81
2022-10-12T23:53:15.647Z,96122.14
2022-10-12T23:55:44.331Z,96127.24
2022-10-12T23:58:12.969Z,96125.79
